Fortuna, CA

6:47 PM PST on November 22, 2017 (GMT -0800)
Rohnerville

Weather History for KFOT - November, 2012

Change the Weather History Date:

Thursday, November 22, 2012

  Actual Average (KEKA) Record (KEKA)
Temperature  
Mean Temperature 48 °F -  
Max Temperature 57 °F 56 °F 74 °F (1930)
Min Temperature 39 °F 44 °F 29 °F (2013)
Degree Days  
Heating Degree Days 17    
Moisture  
Dew Point 42 °F    
Average Humidity 91    
Maximum Humidity 100    
Minimum Humidity 48    
Precipitation  
Precipitation 0.00 in - - ()
Sea Level Pressure  
Sea Level Pressure 30.29 in    
Wind  
Wind Speed 6 mph ()    
Max Wind Speed 13 mph    
Max Gust Speed -    
Visibility 7.0 miles    
Events      
Averages and records for this station are not official NWS values.
T = Trace of Precipitation, MM = Missing Value Source: Averaged Metar Reports

Daily Weather History Graph

Daily Weather History Graph

Search for Another Location

Airport or City:

Trip Planner

Search our weather history database for the weather conditions in past years. The results will help you decide how hot, cold, wet, or windy it might be!

Date:

Astronomy

Nov. 22, 2012 Rise Set
Actual Time 7:11 AM PST 4:53 PM PST
Civil Twilight 6:41 AM PST 5:23 PM PST
Nautical Twilight 6:08 AM PST 5:56 PM PST
Astronomical Twilight 5:35 AM PST 6:29 PM PST
Moon 1:43 PM PST (11/22) 1:36 AM PST (11/22)
Length of Visible Light 10h 41m
Length of Day
9h 41m
Waxing Gibbous, 72% of the Moon is Illuminated
Nov 22
Waxing Gibbous
Nov 28
Full
Dec 6
Last Quarter
Dec 13
New
Dec 19
First Quarter

Hourly Weather History & Observations

Time (PST) Temp. Windchill Dew Point Humidity Pressure Visibility Wind Dir Wind Speed Gust Speed Precip Events Conditions
12:15 AM 41.0 °F 35.2 °F 41.0 °F 100% 30.29 in 0.2 mi SE 9.2 mph - N/A   Overcast
12:35 AM 41.0 °F 35.8 °F 41.0 °F 100% 30.29 in 0.2 mi SSE 8.1 mph - N/A   Overcast
12:55 AM 41.0 °F 36.4 °F 41.0 °F 100% 30.29 in 0.2 mi SSE 6.9 mph - N/A   Overcast
1:15 AM 41.0 °F 35.2 °F 41.0 °F 100% 30.28 in 0.2 mi SE 9.2 mph - N/A   Overcast
1:35 AM 39.2 °F 32.5 °F 39.2 °F 100% 30.27 in 0.2 mi SE 10.4 mph - N/A   Overcast
1:55 AM 39.2 °F 34.2 °F 39.2 °F 100% 30.27 in 0.2 mi SSE 6.9 mph - N/A   Overcast
2:15 AM 39.2 °F 33.0 °F 39.2 °F 100% 30.28 in 0.2 mi SE 9.2 mph - N/A   Overcast
2:35 AM 39.2 °F 32.5 °F 39.2 °F 100% 30.28 in 0.2 mi SE 10.4 mph - N/A   Mostly Cloudy
2:55 AM 39.2 °F 33.0 °F 39.2 °F 100% 30.28 in 0.2 mi SE 9.2 mph - N/A   Unknown
3:15 AM 39.2 °F 33.0 °F 39.2 °F 100% 30.29 in 9.0 mi SE 9.2 mph - N/A   Clear
3:35 AM 39.2 °F 33.0 °F 39.2 °F 100% 30.29 in 3.0 mi SE 9.2 mph - N/A   Clear
4:15 AM 39.2 °F 32.0 °F 39.2 °F 100% 30.28 in 10.0 mi ESE 11.5 mph - N/A   Clear
4:35 AM 39.2 °F 32.5 °F 39.2 °F 100% 30.28 in 10.0 mi SE 10.4 mph - N/A   Clear
4:55 AM 39.2 °F 32.0 °F 39.2 °F 100% 30.28 in 10.0 mi SE 11.5 mph - N/A   Clear
5:15 AM 39.2 °F 32.5 °F 39.2 °F 100% 30.27 in 10.0 mi SE 10.4 mph - N/A   Clear
5:35 AM 39.2 °F 33.0 °F 39.2 °F 100% 30.28 in 10.0 mi SE 9.2 mph - N/A   Clear
5:55 AM 39.2 °F 33.6 °F 39.2 °F 100% 30.30 in 10.0 mi SE 8.1 mph - N/A   Partly Cloudy
6:15 AM 39.2 °F 32.5 °F 39.2 °F 100% 30.30 in 10.0 mi SE 10.4 mph - N/A   Partly Cloudy
6:35 AM 39.2 °F 33.0 °F 39.2 °F 100% 30.29 in 10.0 mi SE 9.2 mph - N/A   Clear
6:55 AM 39.2 °F 33.0 °F 39.2 °F 100% 30.30 in 10.0 mi SE 9.2 mph - N/A   Clear
7:15 AM 39.2 °F 31.6 °F 39.2 °F 100% 30.29 in 10.0 mi ESE 12.7 mph - N/A   Clear
7:35 AM 39.2 °F 32.5 °F 39.2 °F 100% 30.30 in 10.0 mi ESE 10.4 mph - N/A   Clear
7:55 AM 39.2 °F 33.0 °F 39.2 °F 100% 30.30 in 10.0 mi SSE 9.2 mph - N/A   Clear
8:15 AM 39.2 °F 32.5 °F 39.2 °F 100% 30.31 in 10.0 mi SE 10.4 mph - N/A   Clear
8:35 AM 41.0 °F 35.2 °F 41.0 °F 100% 30.32 in 10.0 mi SE 9.2 mph - N/A   Clear
8:55 AM 41.0 °F 34.7 °F 41.0 °F 100% 30.31 in 10.0 mi SE 10.4 mph - N/A   Clear
9:15 AM 42.8 °F 38.0 °F 42.8 °F 100% 30.31 in 10.0 mi SSE 8.1 mph - N/A   Clear
9:35 AM 42.8 °F 37.5 °F 42.8 °F 100% 30.31 in 10.0 mi SSE 9.2 mph - N/A   Clear
9:55 AM 44.6 °F 40.2 °F 44.6 °F 100% 30.31 in 10.0 mi SSE 8.1 mph - N/A   Clear
10:15 AM 44.6 °F 40.7 °F 44.6 °F 100% 30.31 in 10.0 mi SSE 6.9 mph - N/A   Clear
10:35 AM 46.4 °F 43.5 °F 46.4 °F 100% 30.31 in 10.0 mi SSE 5.8 mph - N/A   Clear
10:55 AM 46.4 °F 45.2 °F 46.4 °F 100% 30.32 in 10.0 mi SSE 3.5 mph - N/A   Clear
11:15 AM 48.2 °F - 46.4 °F 93% 30.32 in 10.0 mi Calm Calm - N/A   Clear
11:35 AM 50.0 °F - 44.6 °F 82% 30.31 in 10.0 mi Calm Calm - N/A   Clear
11:55 AM 51.8 °F - 44.6 °F 76% 30.30 in 10.0 mi Calm Calm - N/A   Clear
12:15 PM 53.6 °F - 44.6 °F 72% 30.29 in 10.0 mi Calm Calm - N/A   Clear
12:35 PM 53.6 °F - 46.4 °F 77% 30.29 in 10.0 mi Calm Calm - N/A   Clear
12:55 PM 55.4 °F - 42.8 °F 63% 30.28 in 10.0 mi Calm Calm - N/A   Clear
1:15 PM 55.4 °F - 42.8 °F 63% 30.27 in 9.0 mi Calm Calm - N/A   Clear
1:35 PM 55.4 °F - 41.0 °F 58% 30.27 in 10.0 mi Calm Calm - N/A   Clear
1:55 PM 57.2 °F - 41.0 °F 55% 30.27 in 10.0 mi Calm Calm - N/A   Clear
2:15 PM 57.2 °F - 39.2 °F 51% 30.27 in 10.0 mi Calm Calm - N/A   Clear
2:35 PM 57.2 °F - 37.4 °F 48% 30.26 in 10.0 mi Calm Calm - N/A   Clear
2:55 PM 57.2 °F - 37.4 °F 48% 30.26 in 10.0 mi Calm Calm - N/A   Clear
3:15 PM 57.2 °F - 39.2 °F 51% 30.26 in 10.0 mi Calm Calm - N/A   Clear
3:35 PM 57.2 °F - 42.8 °F 59% 30.26 in 10.0 mi Calm Calm - N/A   Clear
3:55 PM 55.4 °F - 44.6 °F 67% 30.26 in 10.0 mi Calm Calm - N/A   Clear
4:35 PM 53.6 °F - 44.6 °F 72% 30.26 in 10.0 mi Calm Calm - N/A   Clear
4:55 PM 50.0 °F - 44.6 °F 82% 30.25 in 10.0 mi Calm Calm - N/A   Clear
5:15 PM 50.0 °F - 46.4 °F 87% 30.25 in 10.0 mi Calm Calm - N/A   Clear
5:55 PM 48.2 °F - 44.6 °F 87% 30.26 in 10.0 mi Calm Calm - N/A   Partly Cloudy
6:15 PM 46.4 °F 44.3 °F 44.6 °F 93% 30.26 in 10.0 mi WSW 4.6 mph - N/A   Mostly Cloudy
6:35 PM 46.4 °F 43.5 °F 44.6 °F 93% 30.26 in 10.0 mi SW 5.8 mph - N/A   Partly Cloudy
6:55 PM 48.2 °F - 44.6 °F 87% 30.27 in 10.0 mi Calm Calm - N/A   Clear
7:15 PM 46.4 °F - 46.4 °F 100% 30.27 in 10.0 mi Calm Calm - N/A   Clear
7:35 PM 44.6 °F 42.2 °F 44.6 °F 100% 30.27 in 10.0 mi SE 4.6 mph - N/A   Clear
7:55 PM 44.6 °F - 44.6 °F 100% 30.28 in 10.0 mi Calm Calm - N/A   Clear
8:15 PM 44.6 °F 41.4 °F 44.6 °F 100% 30.28 in 0.2 mi SSE 5.8 mph - N/A   Unknown
8:35 PM 44.6 °F 41.4 °F 44.6 °F 100% 30.28 in 0.2 mi SSE 5.8 mph - N/A   Unknown
8:55 PM 42.8 °F 39.3 °F 42.8 °F 100% 30.28 in 0.8 mi SE 5.8 mph - N/A   Unknown
9:15 PM 41.0 °F 35.8 °F 41.0 °F 100% 30.28 in 0.2 mi SE 8.1 mph - N/A   Unknown
9:35 PM 41.0 °F 37.1 °F 41.0 °F 100% 30.29 in 0.5 mi SSE 5.8 mph - N/A   Unknown
9:55 PM 41.0 °F 37.1 °F 41.0 °F 100% 30.29 in 0.2 mi SE 5.8 mph - N/A   Unknown
10:15 PM 41.0 °F 37.1 °F 41.0 °F 100% 30.29 in 0.2 mi SSE 5.8 mph - N/A   Unknown
10:35 PM 41.0 °F 36.4 °F 41.0 °F 100% 30.30 in 0.2 mi SSE 6.9 mph - N/A   Unknown
10:55 PM 41.0 °F 36.4 °F 41.0 °F 100% 30.30 in 0.2 mi SSE 6.9 mph - N/A   Unknown
11:15 PM 41.0 °F 35.8 °F 41.0 °F 100% 30.30 in 1.0 mi SE 8.1 mph - N/A   Clear
11:35 PM 41.0 °F 35.8 °F 41.0 °F 100% 30.30 in 1.2 mi SE 8.1 mph - N/A   Clear
11:55 PM 41.0 °F 35.8 °F 41.0 °F 100% 30.30 in 8.0 mi SE 8.1 mph - N/A   Clear